»·PEaware :: SWA861 KSAN-KONT

SWA861 :: KSAN-KONT

FLIGHT INFORMATION

Flight Status: Arrived
Operator:
Southwest Airlines
More flights by this operator :: More flights under this callsign
Pilot: Anonymous 16342 (16342)
Aircraft: BOEING 737-700
(B737)
More flights by this aircraft type
Origin: KSAN San Diego Intl-Lindbergh
United States
Destination: KONT Ontario Intl
United States
More flights between these airports :: More routes between these airports
Route: +V186 TANNR HDF PETIS
File this flight plan on PilotEdge
Remarks:
Altitude:
(Current/Filed)
10,000ft
Speed:
(Current/Filed)
346kts
Departed: 25-Aug-18 08:51 AM
Arrived: 25-Aug-18 09:26 AM
Distance/Time
Traveled:
82nm/0:35
Distance/Time
To Go:
Arrived

Flight Plot

Page will automatically refresh every two minutes.


Map Options




Map Legend


Flown Route
Filed Route
Departure Airport
Arrival Airport
Navaid (VOR, NDB)
Fix

Horizontal Profiles

Position Reports

Time Latitude Longitude Heading Altitude Ground
Speed
25-Aug-18 08:29 32.733158 -117.196834 142 23ft 0kts
25-Aug-18 08:30 32.733158 -117.196834 142 23ft 0kts
25-Aug-18 08:31 32.733158 -117.196834 142 23ft 0kts
25-Aug-18 08:32 32.733158 -117.196834 142 23ft 0kts
25-Aug-18 08:33 32.733158 -117.196834 142 23ft 0kts
25-Aug-18 08:34 32.733158 -117.196834 142 23ft 0kts
25-Aug-18 08:35 32.733158 -117.196834 142 23ft 0kts
25-Aug-18 08:36 32.733158 -117.196834 142 23ft 0kts
25-Aug-18 08:37 32.733158 -117.196834 142 23ft 0kts
25-Aug-18 08:38 32.733158 -117.196834 142 23ft 0kts
25-Aug-18 08:39 32.733158 -117.196834 142 23ft 0kts
25-Aug-18 08:40 32.733366 -117.196993 158 23ft 2kts
25-Aug-18 08:41 32.733542 -117.197049 179 23ft 0kts
25-Aug-18 08:42 32.733542 -117.197049 179 23ft 0kts
25-Aug-18 08:43 32.733542 -117.197049 179 23ft 0kts
25-Aug-18 08:44 32.733542 -117.197049 179 23ft 23kts
25-Aug-18 08:45 32.733014 -117.196923 267 22ft 4kts
25-Aug-18 08:46 32.733681 -117.197057 9 22ft 0kts
25-Aug-18 08:47 32.734065 -117.196123 109 23ft 17kts
25-Aug-18 08:48 32.732757 -117.190679 106 22ft 8kts
25-Aug-18 08:49 32.731550 -117.185648 104 22ft 15kts
25-Aug-18 08:50 32.730217 -117.180159 105 23ft 19kts
25-Aug-18 08:51 32.729652 -117.176303 71 23ft 14kts
25-Aug-18 08:52 32.734884 -117.195453 292 101ft 166kts
25-Aug-18 08:53 32.748905 -117.249602 287 1279ft 197kts
25-Aug-18 08:54 32.763544 -117.314835 264 3846ft 218kts
25-Aug-18 08:55 32.711947 -117.346405 191 7183ft 243kts
25-Aug-18 08:56 32.641795 -117.362077 191 9825ft 266kts
25-Aug-18 08:57 32.562513 -117.380297 191 10007ft 322kts
25-Aug-18 08:58 32.474930 -117.392838 162 9960ft 326kts
25-Aug-18 08:59 32.449753 -117.305104 57 9993ft 334kts
25-Aug-18 09:00 32.532358 -117.265433 11 10007ft 333kts
25-Aug-18 09:01 32.612572 -117.245272 11 9992ft 333kts
25-Aug-18 09:02 32.701270 -117.222900 11 9980ft 334kts
25-Aug-18 09:03 32.791629 -117.200106 11 9995ft 334kts
25-Aug-18 09:04 32.880665 -117.177671 11 9992ft 334kts
25-Aug-18 09:05 32.969994 -117.155170 11 9992ft 334kts
25-Aug-18 09:06 33.058728 -117.132838 11 9998ft 334kts
25-Aug-18 09:07 33.148157 -117.110336 11 10011ft 334kts
25-Aug-18 09:08 33.238090 -117.109130 346 10009ft 333kts
25-Aug-18 09:09 33.327521 -117.130045 349 10003ft 333kts
25-Aug-18 09:10 33.417515 -117.148818 349 10002ft 333kts
25-Aug-18 09:11 33.507613 -117.165270 355 10002ft 333kts
25-Aug-18 09:12 33.599045 -117.171013 359 10003ft 333kts
25-Aug-18 09:13 33.684128 -117.167705 1 9978ft 280kts
25-Aug-18 09:14 33.758492 -117.164231 1 8951ft 267kts
25-Aug-18 09:15 33.830655 -117.160596 1 7764ft 258kts
25-Aug-18 09:16 33.900079 -117.157132 1 6577ft 250kts
25-Aug-18 09:17 33.964150 -117.153895 1 6016ft 208kts
25-Aug-18 09:18 34.020087 -117.150950 1 6019ft 207kts
25-Aug-18 09:19 34.066691 -117.172033 279 5991ft 200kts
25-Aug-18 09:20 34.053881 -117.234890 266 6011ft 200kts
25-Aug-18 09:21 34.054927 -117.301670 269 5443ft 203kts
25-Aug-18 09:22 34.055047 -117.367188 269 4387ft 194kts
25-Aug-18 09:23 34.055039 -117.430031 269 3393ft 190kts
25-Aug-18 09:24 34.055020 -117.488323 269 2446ft 153kts
25-Aug-18 09:25 34.055009 -117.534996 269 1734ft 139kts
25-Aug-18 09:26 34.054995 -117.580793 271 1008ft 135kts
25-Aug-18 09:27 34.055027 -117.603684 270 952ft 20kts
25-Aug-18 09:28 34.057619 -117.607824 314 952ft 7kts
25-Aug-18 09:29 34.057684 -117.607904 314 952ft 3kts
25-Aug-18 09:30 34.057707 -117.607932 314 952ft 0kts
25-Aug-18 09:31 34.057708 -117.607933 314 952ft 0kts
25-Aug-18 09:32 34.057966 -117.604980 90 952ft 18kts
25-Aug-18 09:33 34.057960 -117.601117 89 952ft 16kts
25-Aug-18 09:34 34.059029 -117.598439 47 952ft 2kts
25-Aug-18 09:35 34.059869 -117.598315 359 952ft 0kts
25-Aug-18 09:36 34.059869 -117.598315 359 952ft 0kts
25-Aug-18 09:37 34.059869 -117.598315 359 952ft 0kts
25-Aug-18 09:38 34.059869 -117.598315 359 952ft 0kts
25-Aug-18 09:39 34.059869 -117.598315 359 952ft 0kts
25-Aug-18 09:40 34.059869 -117.598315 359 952ft 0kts
25-Aug-18 09:41 34.059869 -117.598315 359 952ft 0kts

Navigation Log

Ident Type
Flight plan parsing failed, navigation log unavailable